ICE115 BIKF-BGGH
Flight info
| Callsign | ICE115 |
|---|---|
| Flight time | 2h 0m |
| Altitude | 36000 |
| Route | SORIR DCT SOPEN DCT SABAG DCT NAPIB DCT INBAN DCT GETDA |
| Aircraft | B752/M-SDE2E3FGHIJ3J4J7RWXY/LB1 |
Departure
| Time | 2026-04-21 16:13 |
|---|---|
| Airport | Keflavik International Airport (BIKF) |
Arrival
| Time | 2026-04-21 18:13 |
|---|---|
| Airport | Nuuk International Airport (BGGH) |
| Time | Latitude | Longitude | Altitude | Speed | Heading |
|---|---|---|---|---|---|
| 2026-04-21 15:44 | 63.99327 | -22.62164 | 145 ft | 0 kts | 269° |
| 2026-04-21 16:00 | 63.99327 | -22.62162 | 144 ft | 1 kts | 269° |
| 2026-04-21 16:01 | 63.99327 | -22.62128 | 144 ft | 2 kts | 269° |
| 2026-04-21 16:01 | 63.99327 | -22.62094 | 144 ft | 2 kts | 269° |
| 2026-04-21 16:01 | 63.99328 | -22.62060 | 144 ft | 2 kts | 269° |
| 2026-04-21 16:01 | 63.99328 | -22.62038 | 144 ft | 1 kts | 269° |
| 2026-04-21 16:02 | 63.99332 | -22.62008 | 144 ft | 2 kts | 219° |
| 2026-04-21 16:02 | 63.99343 | -22.61997 | 144 ft | 0 kts | 182° |
| 2026-04-21 16:02 | 63.99350 | -22.61998 | 144 ft | 1 kts | 178° |
| 2026-04-21 16:02 | 63.99351 | -22.61998 | 144 ft | 0 kts | 178° |
| 2026-04-21 16:06 | 63.99323 | -22.61998 | 144 ft | 6 kts | 179° |
| 2026-04-21 16:06 | 63.99281 | -22.61997 | 144 ft | 5 kts | 179° |
| 2026-04-21 16:06 | 63.99244 | -22.61997 | 144 ft | 5 kts | 179° |
| 2026-04-21 16:06 | 63.99202 | -22.61997 | 144 ft | 7 kts | 179° |
| 2026-04-21 16:07 | 63.99173 | -22.61956 | 144 ft | 3 kts | 103° |
| 2026-04-21 16:07 | 63.99173 | -22.61894 | 144 ft | 7 kts | 90° |
| 2026-04-21 16:07 | 63.99172 | -22.61698 | 144 ft | 14 kts | 90° |
| 2026-04-21 16:07 | 63.99172 | -22.61484 | 144 ft | 13 kts | 89° |
| 2026-04-21 16:08 | 63.99173 | -22.61091 | 147 ft | 8 kts | 91° |
| 2026-04-21 16:08 | 63.99172 | -22.60931 | 148 ft | 12 kts | 89° |
| 2026-04-21 16:08 | 63.99173 | -22.60676 | 148 ft | 19 kts | 89° |
| 2026-04-21 16:09 | 63.99173 | -22.60321 | 148 ft | 24 kts | 89° |
| 2026-04-21 16:09 | 63.99136 | -22.59958 | 149 ft | 23 kts | 140° |
| 2026-04-21 16:09 | 63.99039 | -22.59738 | 153 ft | 18 kts | 132° |
| 2026-04-21 16:09 | 63.98943 | -22.59528 | 157 ft | 19 kts | 135° |
| 2026-04-21 16:10 | 63.98828 | -22.59362 | 161 ft | 20 kts | 163° |
| 2026-04-21 16:10 | 63.98701 | -22.59302 | 168 ft | 15 kts | 180° |
| 2026-04-21 16:10 | 63.98617 | -22.59304 | 173 ft | 8 kts | 179° |
| 2026-04-21 16:10 | 63.98569 | -22.59304 | 175 ft | 7 kts | 179° |
| 2026-04-21 16:11 | 63.98515 | -22.59310 | 177 ft | 6 kts | 202° |
| 2026-04-21 16:11 | 63.98504 | -22.59371 | 178 ft | 4 kts | 273° |
| 2026-04-21 16:11 | 63.98505 | -22.59435 | 178 ft | 0 kts | 272° |
| 2026-04-21 16:11 | 63.98505 | -22.59445 | 178 ft | 1 kts | 272° |
| 2026-04-21 16:12 | 63.98506 | -22.59468 | 178 ft | 2 kts | 270° |
| 2026-04-21 16:12 | 63.98507 | -22.60184 | 164 ft | 80 kts | 269° |
| 2026-04-21 16:12 | 63.98504 | -22.61991 | 146 ft | 147 kts | 271° |
| 2026-04-21 16:12 | 63.98490 | -22.64652 | 485 ft | 181 kts | 271° |
| 2026-04-21 16:13 | 63.98481 | -22.67362 | 1570 ft | 169 kts | 271° |
| 2026-04-21 16:13 | 63.98479 | -22.70314 | 1713 ft | 207 kts | 271° |
| 2026-04-21 16:13 | 63.98487 | -22.73701 | 2342 ft | 220 kts | 274° |
| 2026-04-21 16:13 | 63.98695 | -22.77128 | 2947 ft | 233 kts | 292° |
| 2026-04-21 16:14 | 63.99500 | -22.80541 | 3436 ft | 252 kts | 302° |
| 2026-04-21 16:14 | 64.00404 | -22.83918 | 4437 ft | 250 kts | 302° |
| 2026-04-21 16:14 | 64.01341 | -22.87340 | 5176 ft | 259 kts | 302° |
| 2026-04-21 16:14 | 64.02284 | -22.90780 | 6094 ft | 261 kts | 302° |
| 2026-04-21 16:15 | 64.03250 | -22.94258 | 6889 ft | 267 kts | 302° |
| 2026-04-21 16:15 | 64.04287 | -22.97965 | 6972 ft | 276 kts | 302° |
| 2026-04-21 16:15 | 64.05304 | -23.01592 | 6953 ft | 264 kts | 303° |
| 2026-04-21 16:15 | 64.06306 | -23.05161 | 7012 ft | 271 kts | 303° |
| 2026-04-21 16:16 | 64.07308 | -23.08733 | 7975 ft | 268 kts | 303° |
| 2026-04-21 16:16 | 64.08324 | -23.12353 | 8727 ft | 275 kts | 302° |
| 2026-04-21 16:16 | 64.09352 | -23.16024 | 9544 ft | 277 kts | 302° |
| 2026-04-21 16:16 | 64.10401 | -23.19774 | 10281 ft | 283 kts | 302° |
| 2026-04-21 16:17 | 64.11483 | -23.23648 | 10647 ft | 302 kts | 302° |
| 2026-04-21 16:17 | 64.12656 | -23.27859 | 10997 ft | 319 kts | 302° |
| 2026-04-21 16:17 | 64.13859 | -23.32177 | 11651 ft | 325 kts | 302° |
| 2026-04-21 16:17 | 64.15080 | -23.36572 | 12393 ft | 329 kts | 302° |
| 2026-04-21 16:18 | 64.16318 | -23.41042 | 13063 ft | 334 kts | 302° |
| 2026-04-21 16:18 | 64.17561 | -23.45529 | 13772 ft | 337 kts | 302° |
| 2026-04-21 16:18 | 64.18830 | -23.50128 | 14472 ft | 341 kts | 302° |
| 2026-04-21 16:18 | 64.20094 | -23.54712 | 15149 ft | 344 kts | 302° |
| 2026-04-21 16:19 | 64.21352 | -23.59344 | 15808 ft | 348 kts | 299° |
| 2026-04-21 16:19 | 64.22347 | -23.64384 | 16436 ft | 352 kts | 292° |
| 2026-04-21 16:19 | 64.23278 | -23.69630 | 17073 ft | 355 kts | 292° |
| 2026-04-21 16:19 | 64.24219 | -23.74929 | 17697 ft | 359 kts | 292° |
| 2026-04-21 16:20 | 64.25150 | -23.80224 | 18302 ft | 362 kts | 292° |
| 2026-04-21 16:20 | 64.26088 | -23.85577 | 18892 ft | 366 kts | 292° |
| 2026-04-21 16:20 | 64.27051 | -23.91101 | 19461 ft | 370 kts | 292° |
| 2026-04-21 16:20 | 64.28017 | -23.96666 | 20028 ft | 373 kts | 292° |
| 2026-04-21 16:21 | 64.28986 | -24.02259 | 20624 ft | 375 kts | 292° |
| 2026-04-21 16:21 | 64.29950 | -24.07848 | 21109 ft | 380 kts | 292° |
| 2026-04-21 16:21 | 64.30916 | -24.13461 | 21645 ft | 382 kts | 293° |
| 2026-04-21 16:21 | 64.31894 | -24.19167 | 22104 ft | 387 kts | 293° |
| 2026-04-21 16:22 | 64.32891 | -24.24996 | 22575 ft | 391 kts | 293° |
| 2026-04-21 16:22 | 64.33876 | -24.30771 | 23050 ft | 394 kts | 293° |
| 2026-04-21 16:22 | 64.34877 | -24.36659 | 23502 ft | 398 kts | 294° |
| 2026-04-21 16:22 | 64.35892 | -24.42652 | 23983 ft | 400 kts | 294° |
| 2026-04-21 16:23 | 64.36888 | -24.48546 | 24498 ft | 402 kts | 294° |
| 2026-04-21 16:23 | 64.37910 | -24.54612 | 24911 ft | 405 kts | 294° |
| 2026-04-21 16:23 | 64.38929 | -24.60685 | 24963 ft | 411 kts | 294° |
| 2026-04-21 16:23 | 64.39967 | -24.66894 | 25396 ft | 409 kts | 293° |
| 2026-04-21 16:24 | 64.40913 | -24.73020 | 26060 ft | 409 kts | 290° |
| 2026-04-21 16:24 | 64.41783 | -24.79267 | 26536 ft | 412 kts | 290° |
| 2026-04-21 16:24 | 64.42673 | -24.85610 | 27073 ft | 414 kts | 290° |
| 2026-04-21 16:24 | 64.43555 | -24.91908 | 27556 ft | 416 kts | 290° |
| 2026-04-21 16:25 | 64.44444 | -24.98281 | 28052 ft | 418 kts | 290° |
| 2026-04-21 16:25 | 64.45338 | -25.04705 | 28529 ft | 419 kts | 290° |
| 2026-04-21 16:25 | 64.46230 | -25.11136 | 28962 ft | 422 kts | 290° |
| 2026-04-21 16:25 | 64.47118 | -25.17571 | 29447 ft | 423 kts | 290° |
| 2026-04-21 16:26 | 64.48014 | -25.24081 | 29891 ft | 424 kts | 290° |
| 2026-04-21 16:26 | 64.48910 | -25.30615 | 30312 ft | 426 kts | 290° |
| 2026-04-21 16:26 | 64.49811 | -25.37214 | 30760 ft | 427 kts | 290° |
| 2026-04-21 16:26 | 64.50710 | -25.43815 | 31066 ft | 431 kts | 290° |
| 2026-04-21 16:27 | 64.51617 | -25.50508 | 31377 ft | 435 kts | 290° |
| 2026-04-21 16:27 | 64.52528 | -25.57263 | 31627 ft | 439 kts | 290° |
| 2026-04-21 16:27 | 64.53425 | -25.63936 | 32164 ft | 437 kts | 289° |
| 2026-04-21 16:27 | 64.54338 | -25.70762 | 32527 ft | 439 kts | 289° |
| 2026-04-21 16:28 | 64.55240 | -25.77535 | 33039 ft | 436 kts | 288° |
| 2026-04-21 16:28 | 64.56133 | -25.84261 | 33424 ft | 437 kts | 288° |
| 2026-04-21 16:28 | 64.57031 | -25.91055 | 33846 ft | 436 kts | 288° |
| 2026-04-21 16:28 | 64.57909 | -25.97724 | 34203 ft | 436 kts | 288° |
| 2026-04-21 16:29 | 64.58798 | -26.04500 | 34646 ft | 434 kts | 288° |
| 2026-04-21 16:29 | 64.59678 | -26.11243 | 34903 ft | 435 kts | 288° |
| 2026-04-21 16:29 | 64.60555 | -26.17985 | 35171 ft | 435 kts | 288° |
| 2026-04-21 16:29 | 64.61426 | -26.24716 | 35382 ft | 436 kts | 288° |
| 2026-04-21 16:30 | 64.62312 | -26.31587 | 35596 ft | 437 kts | 288° |
| 2026-04-21 16:30 | 64.63187 | -26.38410 | 35814 ft | 438 kts | 288° |
| 2026-04-21 16:30 | 64.64051 | -26.45168 | 35925 ft | 435 kts | 288° |
| 2026-04-21 16:31 | 64.65790 | -26.58851 | 35943 ft | 436 kts | 288° |
| 2026-04-21 16:31 | 64.67505 | -26.72463 | 35947 ft | 437 kts | 287° |
| 2026-04-21 16:32 | 64.69217 | -26.86170 | 35921 ft | 436 kts | 287° |
| 2026-04-21 16:32 | 64.70718 | -26.99963 | 35926 ft | 437 kts | 284° |
| 2026-04-21 16:33 | 64.72019 | -27.13347 | 35927 ft | 436 kts | 284° |
| 2026-04-21 16:33 | 64.73348 | -27.27209 | 35917 ft | 436 kts | 284° |
| 2026-04-21 16:34 | 64.74670 | -27.41184 | 35929 ft | 436 kts | 284° |
| 2026-04-21 16:34 | 64.75978 | -27.55145 | 35925 ft | 435 kts | 284° |
| 2026-04-21 16:35 | 64.77261 | -27.69002 | 35926 ft | 434 kts | 283° |
| 2026-04-21 16:35 | 64.78530 | -27.82864 | 35918 ft | 435 kts | 283° |
| 2026-04-21 16:36 | 64.79787 | -27.96755 | 35919 ft | 433 kts | 283° |
| 2026-04-21 16:36 | 64.81020 | -28.10514 | 35920 ft | 433 kts | 283° |
| 2026-04-21 16:37 | 64.82259 | -28.24511 | 35908 ft | 432 kts | 282° |
| 2026-04-21 16:37 | 64.83469 | -28.38347 | 35910 ft | 432 kts | 282° |
| 2026-04-21 16:38 | 64.84666 | -28.52198 | 35919 ft | 432 kts | 282° |
| 2026-04-21 16:38 | 64.85848 | -28.66018 | 35913 ft | 431 kts | 281° |
| 2026-04-21 16:39 | 64.87021 | -28.79905 | 35922 ft | 432 kts | 281° |
| 2026-04-21 16:39 | 64.88168 | -28.93648 | 35921 ft | 430 kts | 281° |
| 2026-04-21 16:40 | 64.89311 | -29.07491 | 35920 ft | 430 kts | 281° |
| 2026-04-21 16:40 | 64.90436 | -29.21312 | 35918 ft | 430 kts | 281° |
| 2026-04-21 16:41 | 64.91361 | -29.32785 | 35914 ft | 430 kts | 281° |
| 2026-04-21 16:41 | 64.92648 | -29.48962 | 35913 ft | 429 kts | 281° |
| 2026-04-21 16:42 | 64.93730 | -29.62754 | 35914 ft | 428 kts | 281° |
| 2026-04-21 16:42 | 64.94805 | -29.76617 | 35903 ft | 428 kts | 279° |
| 2026-04-21 16:43 | 64.95869 | -29.90506 | 35894 ft | 428 kts | 279° |
| 2026-04-21 16:43 | 64.96915 | -30.04358 | 35898 ft | 428 kts | 279° |
| 2026-04-21 16:44 | 64.97945 | -30.18190 | 35899 ft | 427 kts | 279° |
| 2026-04-21 16:44 | 64.98959 | -30.31963 | 35897 ft | 426 kts | 279° |
| 2026-04-21 16:45 | 64.99963 | -30.45795 | 35894 ft | 426 kts | 279° |
| 2026-04-21 16:45 | 65.00960 | -30.59722 | 35893 ft | 426 kts | 279° |
| 2026-04-21 16:46 | 65.01938 | -30.73558 | 35894 ft | 427 kts | 278° |
| 2026-04-21 16:46 | 65.02905 | -30.87452 | 35896 ft | 428 kts | 278° |
| 2026-04-21 16:47 | 65.03862 | -31.01372 | 35889 ft | 427 kts | 278° |
| 2026-04-21 16:47 | 65.04800 | -31.15225 | 35886 ft | 425 kts | 277° |
| 2026-04-21 16:48 | 65.05731 | -31.29201 | 35876 ft | 427 kts | 277° |
| 2026-04-21 16:48 | 65.06648 | -31.43139 | 35875 ft | 426 kts | 277° |
| 2026-04-21 16:49 | 65.07552 | -31.57083 | 35877 ft | 425 kts | 277° |
| 2026-04-21 16:49 | 65.08438 | -31.70978 | 35882 ft | 426 kts | 276° |
| 2026-04-21 16:50 | 65.09320 | -31.85012 | 35891 ft | 427 kts | 276° |
| 2026-04-21 16:50 | 65.10184 | -31.98985 | 35895 ft | 427 kts | 276° |
| 2026-04-21 16:51 | 65.11032 | -32.12917 | 35886 ft | 426 kts | 276° |
| 2026-04-21 16:51 | 65.11868 | -32.26873 | 35890 ft | 425 kts | 276° |
| 2026-04-21 16:52 | 65.12688 | -32.40792 | 35889 ft | 426 kts | 276° |
| 2026-04-21 16:52 | 65.13503 | -32.54827 | 35885 ft | 426 kts | 276° |
| 2026-04-21 16:53 | 65.14298 | -32.68782 | 35889 ft | 427 kts | 275° |
| 2026-04-21 16:53 | 65.15086 | -32.82835 | 35883 ft | 426 kts | 275° |
| 2026-04-21 16:54 | 65.15859 | -32.96863 | 35866 ft | 426 kts | 275° |
| 2026-04-21 16:54 | 65.16618 | -33.10892 | 35863 ft | 425 kts | 275° |
| 2026-04-21 16:55 | 65.17361 | -33.24857 | 35855 ft | 425 kts | 275° |
| 2026-04-21 16:55 | 65.18093 | -33.38904 | 35858 ft | 426 kts | 275° |
| 2026-04-21 16:56 | 65.18815 | -33.52981 | 35856 ft | 426 kts | 275° |
| 2026-04-21 16:56 | 65.19523 | -33.67078 | 35853 ft | 427 kts | 274° |
| 2026-04-21 16:57 | 65.20224 | -33.81287 | 35855 ft | 428 kts | 274° |
| 2026-04-21 16:57 | 65.20904 | -33.95355 | 35855 ft | 427 kts | 274° |
| 2026-04-21 16:58 | 65.21573 | -34.09472 | 35850 ft | 427 kts | 274° |
| 2026-04-21 16:58 | 65.22225 | -34.23542 | 35860 ft | 428 kts | 274° |
| 2026-04-21 16:59 | 65.22874 | -34.37800 | 35855 ft | 428 kts | 274° |
| 2026-04-21 16:59 | 65.23500 | -34.51867 | 35849 ft | 428 kts | 274° |
| 2026-04-21 17:00 | 65.24119 | -34.66095 | 35849 ft | 428 kts | 274° |
| 2026-04-21 17:00 | 65.24620 | -34.77850 | 35838 ft | 428 kts | 274° |
| 2026-04-21 17:01 | 65.25310 | -34.94394 | 35849 ft | 429 kts | 274° |
| 2026-04-21 17:01 | 65.25887 | -35.08569 | 35846 ft | 428 kts | 274° |
| 2026-04-21 17:02 | 65.26442 | -35.22564 | 35854 ft | 428 kts | 274° |
| 2026-04-21 17:02 | 65.26743 | -35.36766 | 35859 ft | 428 kts | 271° |
| 2026-04-21 17:03 | 65.26934 | -35.50960 | 35858 ft | 427 kts | 271° |
| 2026-04-21 17:03 | 65.27098 | -35.65145 | 35864 ft | 428 kts | 270° |
| 2026-04-21 17:04 | 65.27245 | -35.79445 | 35858 ft | 429 kts | 270° |
| 2026-04-21 17:04 | 65.27377 | -35.93704 | 35854 ft | 427 kts | 270° |
| 2026-04-21 17:05 | 65.27494 | -36.07832 | 35856 ft | 429 kts | 270° |
| 2026-04-21 17:05 | 65.27599 | -36.22150 | 35854 ft | 428 kts | 271° |
| 2026-04-21 17:06 | 65.27689 | -36.36351 | 35851 ft | 427 kts | 271° |
| 2026-04-21 17:06 | 65.27766 | -36.50532 | 35856 ft | 428 kts | 271° |
| 2026-04-21 17:07 | 65.27820 | -36.62419 | 35856 ft | 428 kts | 271° |
| 2026-04-21 17:07 | 65.27880 | -36.79031 | 35852 ft | 428 kts | 270° |
| 2026-04-21 17:08 | 65.27917 | -36.93291 | 35847 ft | 430 kts | 270° |
| 2026-04-21 17:08 | 65.27940 | -37.07649 | 35858 ft | 429 kts | 271° |
| 2026-04-21 17:09 | 65.27949 | -37.29037 | 35858 ft | 430 kts | 271° |
| 2026-04-21 17:09 | 65.27940 | -37.43407 | 35860 ft | 429 kts | 271° |
| 2026-04-21 17:10 | 65.27914 | -37.57794 | 35861 ft | 430 kts | 271° |
| 2026-04-21 17:10 | 65.27877 | -37.72080 | 35861 ft | 430 kts | 270° |
| 2026-04-21 17:11 | 65.27825 | -37.86381 | 35849 ft | 430 kts | 270° |
| 2026-04-21 17:11 | 65.27761 | -38.00665 | 35846 ft | 431 kts | 270° |
| 2026-04-21 17:12 | 65.27683 | -38.15028 | 35845 ft | 431 kts | 270° |
| 2026-04-21 17:12 | 65.27589 | -38.29474 | 35849 ft | 430 kts | 270° |
| 2026-04-21 17:13 | 65.27483 | -38.43736 | 35849 ft | 430 kts | 270° |
| 2026-04-21 17:13 | 65.27363 | -38.58187 | 35848 ft | 432 kts | 270° |
| 2026-04-21 17:14 | 65.27228 | -38.72630 | 35847 ft | 431 kts | 270° |
| 2026-04-21 17:14 | 65.27081 | -38.86976 | 35847 ft | 432 kts | 270° |
| 2026-04-21 17:15 | 65.26920 | -39.01358 | 35844 ft | 432 kts | 270° |
| 2026-04-21 17:15 | 65.26744 | -39.15781 | 35849 ft | 431 kts | 269° |
| 2026-04-21 17:16 | 65.26556 | -39.30144 | 35847 ft | 432 kts | 269° |
| 2026-04-21 17:16 | 65.26354 | -39.44548 | 35848 ft | 431 kts | 269° |
| 2026-04-21 17:17 | 65.26138 | -39.58796 | 35847 ft | 430 kts | 269° |
| 2026-04-21 17:17 | 65.25909 | -39.73138 | 35851 ft | 431 kts | 268° |
| 2026-04-21 17:18 | 65.25666 | -39.87505 | 35825 ft | 432 kts | 268° |
| 2026-04-21 17:18 | 65.25407 | -40.01944 | 35794 ft | 431 kts | 268° |
| 2026-04-21 17:19 | 65.25138 | -40.16235 | 35786 ft | 432 kts | 268° |
| 2026-04-21 17:19 | 65.24854 | -40.30608 | 35781 ft | 432 kts | 268° |
| 2026-04-21 17:20 | 65.24555 | -40.44944 | 35771 ft | 431 kts | 268° |
| 2026-04-21 17:20 | 65.24244 | -40.59259 | 35760 ft | 431 kts | 268° |
| 2026-04-21 17:21 | 65.23922 | -40.73485 | 35756 ft | 431 kts | 267° |
| 2026-04-21 17:21 | 65.23582 | -40.87863 | 35752 ft | 432 kts | 267° |
| 2026-04-21 17:22 | 65.23229 | -41.02200 | 35744 ft | 431 kts | 267° |
| 2026-04-21 17:22 | 65.22865 | -41.16460 | 35745 ft | 431 kts | 267° |
| 2026-04-21 17:23 | 65.22483 | -41.30844 | 35738 ft | 430 kts | 267° |
| 2026-04-21 17:23 | 65.22090 | -41.45171 | 35731 ft | 430 kts | 266° |
| 2026-04-21 17:24 | 65.21693 | -41.59137 | 35724 ft | 429 kts | 266° |
| 2026-04-21 17:24 | 65.21271 | -41.73526 | 35713 ft | 429 kts | 265° |
| 2026-04-21 17:25 | 65.20837 | -41.87834 | 35703 ft | 425 kts | 265° |
| 2026-04-21 17:25 | 65.20396 | -42.01920 | 35673 ft | 427 kts | 265° |
| 2026-04-21 17:26 | 65.19935 | -42.16222 | 35678 ft | 428 kts | 265° |
| 2026-04-21 17:26 | 65.19701 | -42.23333 | 35406 ft | 427 kts | 265° |
| 2026-04-21 17:26 | 65.19468 | -42.30295 | 35623 ft | 424 kts | 265° |
| 2026-04-21 17:27 | 65.18983 | -42.44487 | 35604 ft | 430 kts | 265° |
| 2026-04-21 17:27 | 65.18486 | -42.58648 | 35597 ft | 427 kts | 265° |
| 2026-04-21 17:28 | 65.17976 | -42.72807 | 35593 ft | 428 kts | 264° |
| 2026-04-21 17:28 | 65.17744 | -42.79115 | 35591 ft | 428 kts | 264° |
| 2026-04-21 17:29 | 65.17219 | -42.93139 | 35581 ft | 427 kts | 264° |
| 2026-04-21 17:29 | 65.16677 | -43.07242 | 35575 ft | 427 kts | 264° |
| 2026-04-21 17:30 | 65.16125 | -43.21275 | 35568 ft | 427 kts | 263° |
| 2026-04-21 17:30 | 65.15555 | -43.35440 | 35556 ft | 427 kts | 263° |
| 2026-04-21 17:31 | 65.14974 | -43.49508 | 35561 ft | 426 kts | 263° |
| 2026-04-21 17:31 | 65.14380 | -43.63589 | 35541 ft | 427 kts | 263° |
| 2026-04-21 17:32 | 65.13854 | -43.77601 | 35532 ft | 426 kts | 264° |
| 2026-04-21 17:32 | 65.13451 | -43.91713 | 35524 ft | 426 kts | 264° |
| 2026-04-21 17:33 | 65.13034 | -44.05881 | 35507 ft | 427 kts | 263° |
| 2026-04-21 17:33 | 65.12608 | -44.19954 | 35505 ft | 426 kts | 263° |
| 2026-04-21 17:34 | 65.12171 | -44.33977 | 35503 ft | 427 kts | 263° |
| 2026-04-21 17:34 | 65.11718 | -44.48092 | 35491 ft | 425 kts | 263° |
| 2026-04-21 17:35 | 65.11254 | -44.62125 | 35488 ft | 426 kts | 263° |
| 2026-04-21 17:35 | 65.10774 | -44.76254 | 35483 ft | 426 kts | 262° |
| 2026-04-21 17:36 | 65.10283 | -44.90295 | 35484 ft | 427 kts | 262° |
| 2026-04-21 17:36 | 65.09775 | -45.04475 | 35479 ft | 425 kts | 262° |
| 2026-04-21 17:37 | 65.09263 | -45.18375 | 35471 ft | 424 kts | 262° |
| 2026-04-21 17:37 | 65.08736 | -45.32325 | 35466 ft | 424 kts | 262° |
| 2026-04-21 17:38 | 65.08229 | -45.45402 | 35467 ft | 424 kts | 262° |
| 2026-04-21 17:38 | 65.07981 | -45.51707 | 35462 ft | 424 kts | 262° |
| 2026-04-21 17:39 | 65.07420 | -45.65704 | 35459 ft | 424 kts | 261° |
| 2026-04-21 17:39 | 65.06850 | -45.79610 | 35454 ft | 424 kts | 261° |
| 2026-04-21 17:40 | 65.06267 | -45.93491 | 35456 ft | 425 kts | 261° |
| 2026-04-21 17:40 | 65.05667 | -46.07492 | 35455 ft | 425 kts | 261° |
| 2026-04-21 17:41 | 65.05062 | -46.21299 | 35445 ft | 423 kts | 261° |
| 2026-04-21 17:41 | 65.04437 | -46.35254 | 35441 ft | 423 kts | 260° |
| 2026-04-21 17:42 | 65.03803 | -46.49109 | 35443 ft | 424 kts | 260° |
| 2026-04-21 17:42 | 65.03155 | -46.63007 | 35539 ft | 422 kts | 260° |
| 2026-04-21 17:43 | 65.02490 | -46.76944 | 35615 ft | 425 kts | 259° |
| 2026-04-21 17:43 | 65.01817 | -46.90811 | 35611 ft | 424 kts | 259° |
| 2026-04-21 17:44 | 65.01130 | -47.04681 | 35510 ft | 415 kts | 259° |
| 2026-04-21 17:44 | 65.00802 | -47.11267 | 35498 ft | 403 kts | 259° |
| 2026-04-21 17:44 | 65.00463 | -47.17912 | 35494 ft | 409 kts | 259° |
| 2026-04-21 17:45 | 64.99760 | -47.31540 | 35635 ft | 420 kts | 259° |
| 2026-04-21 17:45 | 64.99406 | -47.38346 | 35960 ft | 419 kts | 259° |
| 2026-04-21 17:45 | 64.99051 | -47.45110 | 36142 ft | 418 kts | 258° |
| 2026-04-21 17:46 | 64.98686 | -47.51977 | 36021 ft | 421 kts | 258° |
| 2026-04-21 17:46 | 64.98319 | -47.58865 | 35767 ft | 415 kts | 258° |
| 2026-04-21 17:46 | 64.97961 | -47.65523 | 35511 ft | 404 kts | 257° |
| 2026-04-21 17:46 | 64.97610 | -47.71986 | 35265 ft | 398 kts | 257° |
| 2026-04-21 17:47 | 64.97250 | -47.78505 | 35020 ft | 399 kts | 257° |
| 2026-04-21 17:47 | 64.96887 | -47.85036 | 34781 ft | 405 kts | 257° |
| 2026-04-21 17:47 | 64.96516 | -47.91670 | 34538 ft | 409 kts | 257° |
| 2026-04-21 17:47 | 64.96141 | -47.98325 | 34076 ft | 413 kts | 257° |
| 2026-04-21 17:48 | 64.95883 | -48.02898 | 33706 ft | 413 kts | 257° |
| 2026-04-21 17:48 | 64.95376 | -48.11778 | 32995 ft | 410 kts | 257° |
| 2026-04-21 17:48 | 64.94991 | -48.18468 | 32467 ft | 409 kts | 257° |
| 2026-04-21 17:48 | 64.94605 | -48.25114 | 31946 ft | 408 kts | 257° |
| 2026-04-21 17:49 | 64.94218 | -48.31724 | 31439 ft | 408 kts | 257° |
| 2026-04-21 17:49 | 64.93824 | -48.38387 | 30924 ft | 405 kts | 257° |
| 2026-04-21 17:49 | 64.93437 | -48.44910 | 30417 ft | 401 kts | 257° |
| 2026-04-21 17:49 | 64.93052 | -48.51349 | 29921 ft | 396 kts | 257° |
| 2026-04-21 17:50 | 64.92725 | -48.56763 | 29519 ft | 393 kts | 257° |
| 2026-04-21 17:50 | 64.92341 | -48.63075 | 29050 ft | 393 kts | 257° |
| 2026-04-21 17:50 | 64.91949 | -48.69472 | 28563 ft | 392 kts | 256° |
| 2026-04-21 17:50 | 64.91554 | -48.75894 | 28084 ft | 390 kts | 256° |
| 2026-04-21 17:51 | 64.91161 | -48.82218 | 27609 ft | 388 kts | 256° |
| 2026-04-21 17:51 | 64.90770 | -48.88469 | 27139 ft | 385 kts | 256° |
| 2026-04-21 17:51 | 64.90382 | -48.94632 | 26672 ft | 383 kts | 256° |
| 2026-04-21 17:51 | 64.89991 | -49.00789 | 26208 ft | 382 kts | 256° |
| 2026-04-21 17:52 | 64.89597 | -49.06959 | 25761 ft | 380 kts | 256° |
| 2026-04-21 17:52 | 64.89199 | -49.13161 | 25304 ft | 377 kts | 256° |
| 2026-04-21 17:52 | 64.88806 | -49.19235 | 24851 ft | 375 kts | 256° |
| 2026-04-21 17:52 | 64.88410 | -49.25314 | 24405 ft | 375 kts | 256° |
| 2026-04-21 17:53 | 64.88013 | -49.31361 | 23949 ft | 373 kts | 256° |
| 2026-04-21 17:53 | 64.87614 | -49.37407 | 23503 ft | 371 kts | 256° |
| 2026-04-21 17:53 | 64.87218 | -49.43376 | 23060 ft | 370 kts | 256° |
| 2026-04-21 17:53 | 64.86822 | -49.49311 | 22608 ft | 366 kts | 256° |
| 2026-04-21 17:54 | 64.86427 | -49.55203 | 22140 ft | 361 kts | 255° |
| 2026-04-21 17:54 | 64.86034 | -49.60998 | 21686 ft | 358 kts | 255° |
| 2026-04-21 17:54 | 64.85643 | -49.66756 | 21233 ft | 355 kts | 254° |
| 2026-04-21 17:54 | 64.85253 | -49.72454 | 20785 ft | 352 kts | 254° |
| 2026-04-21 17:55 | 64.84862 | -49.78136 | 20337 ft | 350 kts | 254° |
| 2026-04-21 17:55 | 64.84470 | -49.83789 | 19879 ft | 347 kts | 253° |
| 2026-04-21 17:55 | 64.84081 | -49.89360 | 19436 ft | 344 kts | 253° |
| 2026-04-21 17:55 | 64.83691 | -49.94926 | 19010 ft | 343 kts | 253° |
| 2026-04-21 17:56 | 64.83110 | -50.00219 | 18557 ft | 330 kts | 241° |
| 2026-04-21 17:56 | 64.82207 | -50.05068 | 18119 ft | 325 kts | 240° |
| 2026-04-21 17:56 | 64.81278 | -50.09947 | 17748 ft | 321 kts | 239° |
| 2026-04-21 17:56 | 64.80350 | -50.14698 | 17357 ft | 320 kts | 238° |
| 2026-04-21 17:57 | 64.79408 | -50.19453 | 16970 ft | 317 kts | 238° |
| 2026-04-21 17:57 | 64.78487 | -50.24076 | 16616 ft | 313 kts | 238° |
| 2026-04-21 17:57 | 64.77552 | -50.28724 | 16226 ft | 310 kts | 238° |
| 2026-04-21 17:57 | 64.76630 | -50.33280 | 15819 ft | 309 kts | 237° |
| 2026-04-21 17:58 | 64.75713 | -50.37799 | 15479 ft | 310 kts | 237° |
| 2026-04-21 17:58 | 64.74784 | -50.42373 | 15130 ft | 307 kts | 237° |
| 2026-04-21 17:58 | 64.73861 | -50.46896 | 14746 ft | 305 kts | 237° |
| 2026-04-21 17:58 | 64.72940 | -50.51419 | 14401 ft | 301 kts | 237° |
| 2026-04-21 17:59 | 64.72044 | -50.55787 | 14072 ft | 300 kts | 237° |
| 2026-04-21 17:59 | 64.71141 | -50.60189 | 13686 ft | 297 kts | 237° |
| 2026-04-21 17:59 | 64.70248 | -50.64523 | 13345 ft | 294 kts | 237° |
| 2026-04-21 17:59 | 64.69354 | -50.68855 | 13010 ft | 295 kts | 236° |
| 2026-04-21 18:00 | 64.68465 | -50.73162 | 12646 ft | 293 kts | 236° |
| 2026-04-21 18:00 | 64.67587 | -50.77410 | 12240 ft | 289 kts | 235° |
| 2026-04-21 18:00 | 64.66711 | -50.81628 | 11901 ft | 288 kts | 234° |
| 2026-04-21 18:00 | 64.65827 | -50.85875 | 11514 ft | 287 kts | 235° |
| 2026-04-21 18:01 | 64.64970 | -50.89995 | 11173 ft | 285 kts | 235° |
| 2026-04-21 18:01 | 64.64101 | -50.94156 | 10791 ft | 283 kts | 235° |
| 2026-04-21 18:01 | 64.63245 | -50.98252 | 10403 ft | 279 kts | 234° |
| 2026-04-21 18:01 | 64.62403 | -51.02291 | 10063 ft | 270 kts | 234° |
| 2026-04-21 18:02 | 64.61588 | -51.06187 | 9818 ft | 260 kts | 234° |
| 2026-04-21 18:02 | 64.60812 | -51.09884 | 9634 ft | 248 kts | 233° |
| 2026-04-21 18:02 | 64.60072 | -51.13409 | 9481 ft | 237 kts | 233° |
| 2026-04-21 18:02 | 64.59320 | -51.16941 | 9320 ft | 243 kts | 233° |
| 2026-04-21 18:03 | 64.58565 | -51.20489 | 9130 ft | 246 kts | 233° |
| 2026-04-21 18:03 | 64.57800 | -51.24098 | 8897 ft | 245 kts | 233° |
| 2026-04-21 18:03 | 64.57052 | -51.27642 | 8664 ft | 240 kts | 234° |
| 2026-04-21 18:03 | 64.56310 | -51.31130 | 8400 ft | 243 kts | 233° |
| 2026-04-21 18:04 | 64.55552 | -51.34684 | 8114 ft | 243 kts | 232° |
| 2026-04-21 18:04 | 64.54803 | -51.38204 | 7877 ft | 238 kts | 231° |
| 2026-04-21 18:04 | 64.53888 | -51.41087 | 7853 ft | 212 kts | 206° |
| 2026-04-21 18:04 | 64.52541 | -51.42607 | 7617 ft | 221 kts | 195° |
| 2026-04-21 18:05 | 64.51112 | -51.43857 | 7093 ft | 222 kts | 195° |
| 2026-04-21 18:05 | 64.49647 | -51.45094 | 6584 ft | 222 kts | 194° |
| 2026-04-21 18:05 | 64.48205 | -51.46261 | 6090 ft | 224 kts | 193° |
| 2026-04-21 18:05 | 64.46720 | -51.47421 | 5574 ft | 225 kts | 194° |
| 2026-04-21 18:06 | 64.45224 | -51.48573 | 5046 ft | 226 kts | 193° |
| 2026-04-21 18:06 | 64.43734 | -51.49703 | 4538 ft | 228 kts | 193° |
| 2026-04-21 18:06 | 64.42245 | -51.50831 | 4351 ft | 216 kts | 193° |
| 2026-04-21 18:06 | 64.40881 | -51.51881 | 4357 ft | 198 kts | 193° |
| 2026-04-21 18:07 | 64.39611 | -51.52853 | 4363 ft | 181 kts | 192° |
| 2026-04-21 18:07 | 64.38451 | -51.53728 | 4354 ft | 166 kts | 192° |
| 2026-04-21 18:07 | 64.37389 | -51.54523 | 4195 ft | 160 kts | 191° |
| 2026-04-21 18:07 | 64.36343 | -51.55296 | 4012 ft | 151 kts | 191° |
| 2026-04-21 18:08 | 64.35395 | -51.56010 | 3806 ft | 132 kts | 191° |
| 2026-04-21 18:08 | 64.34532 | -51.56642 | 3614 ft | 132 kts | 190° |
| 2026-04-21 18:08 | 64.33638 | -51.57289 | 3469 ft | 136 kts | 191° |
| 2026-04-21 18:08 | 64.32721 | -51.57960 | 3262 ft | 140 kts | 191° |
| 2026-04-21 18:09 | 64.31805 | -51.58636 | 3021 ft | 131 kts | 191° |
| 2026-04-21 18:09 | 64.30988 | -51.59247 | 2768 ft | 113 kts | 191° |
| 2026-04-21 18:09 | 64.30508 | -51.59601 | 2630 ft | 107 kts | 192° |
| 2026-04-21 18:09 | 64.29555 | -51.60210 | 2459 ft | 105 kts | 192° |
| 2026-04-21 18:10 | 64.28850 | -51.60762 | 2270 ft | 109 kts | 193° |
| 2026-04-21 18:10 | 64.28130 | -51.61297 | 2120 ft | 108 kts | 192° |
| 2026-04-21 18:10 | 64.27403 | -51.61834 | 1956 ft | 111 kts | 193° |
| 2026-04-21 18:10 | 64.26669 | -51.62407 | 1792 ft | 112 kts | 189° |
| 2026-04-21 18:11 | 64.25899 | -51.62942 | 1647 ft | 116 kts | 195° |
| 2026-04-21 18:11 | 64.25118 | -51.63451 | 1483 ft | 116 kts | 194° |
| 2026-04-21 18:11 | 64.24318 | -51.64092 | 1296 ft | 123 kts | 197° |
| 2026-04-21 18:11 | 64.23520 | -51.64765 | 1130 ft | 129 kts | 199° |
| 2026-04-21 18:12 | 64.22617 | -51.65329 | 855 ft | 141 kts | 191° |
| 2026-04-21 18:12 | 64.21703 | -51.66050 | 629 ft | 131 kts | 197° |
| 2026-04-21 18:12 | 64.20881 | -51.66654 | 405 ft | 120 kts | 199° |
| 2026-04-21 18:12 | 64.20063 | -51.67227 | 307 ft | 126 kts | 193° |
| 2026-04-21 18:13 | 64.19327 | -51.67753 | 265 ft | 80 kts | 196° |
| 2026-04-21 18:13 | 64.18960 | -51.68027 | 265 ft | 35 kts | 198° |
| 2026-04-21 18:13 | 64.18825 | -51.68126 | 264 ft | 19 kts | 198° |
| 2026-04-21 18:13 | 64.18687 | -51.68214 | 264 ft | 16 kts | 176° |
| 2026-04-21 18:14 | 64.18624 | -51.67972 | 264 ft | 4 kts | 108° |
| 2026-04-21 18:14 | 64.18628 | -51.67923 | 264 ft | 3 kts | 51° |
| 2026-04-21 18:14 | 64.18650 | -51.67881 | 264 ft | 6 kts | 28° |
| 2026-04-21 18:15 | 64.18705 | -51.67837 | 264 ft | 6 kts | 15° |
| 2026-04-21 18:15 | 64.18757 | -51.67799 | 264 ft | 9 kts | 18° |
| 2026-04-21 18:15 | 64.18812 | -51.67759 | 266 ft | 6 kts | 17° |
| 2026-04-21 18:15 | 64.18872 | -51.67717 | 264 ft | 10 kts | 17° |
| 2026-04-21 18:16 | 64.18949 | -51.67664 | 264 ft | 13 kts | 16° |
| 2026-04-21 18:16 | 64.19045 | -51.67580 | 264 ft | 11 kts | 43° |
| 2026-04-21 18:16 | 64.19059 | -51.67517 | 264 ft | 1 kts | 65° |
| 2026-04-21 18:16 | 64.19062 | -51.67504 | 264 ft | 0 kts | 60° |
| 2026-04-21 18:17 | 64.19063 | -51.67502 | 264 ft | 0 kts | 59° |
| 2026-04-21 18:17 | 64.19063 | -51.67501 | 264 ft | 0 kts | 59° |
| 2026-04-21 18:18 | 64.19092 | -51.67421 | 264 ft | 6 kts | 41° |
| 2026-04-21 18:18 | 64.19119 | -51.67388 | 264 ft | 4 kts | 25° |
| 2026-04-21 18:18 | 64.19119 | -51.67387 | 264 ft | 0 kts | 25° |